KMAF/MAF METAR and TAF weather

Enter ICAO airport designator
Station Type Date Time Source
KMAF METAR 2021/09/16 11:53 UTC NOAA

KMAF 161153Z 14006KT 10SM CLR 18/14 A2998 RMK AO2 SLP107 T01830144 10228 20183 51002 $


Station Type Date Time Source
KMAF Decoded METAR 2021/09/16 11:53 UTC NOAA

MIDLAND INTERNATIONAL AIRPORT , TX, United States (KMAF) 31-56N 102-12W 872M
Sep 16, 2021 - 07:53 AM EDT / 2021.09.16 1153 UTC
Wind: from the SE (140 degrees) at 7 MPH (6 KT):0
Visibility: 10 mile(s):0
Sky conditions: clear
Temperature: 64.9 F (18.3 C)
Dew Point: 57.9 F (14.4 C)
Relative Humidity: 77%
Pressure (altimeter): 29.98 in. Hg (1015 hPa)
Pressure tendency: 0.01 inches (0.2 hPa) higher than three hours ago
ob: KMAF 161153Z 14006KT 10SM CLR 18/14 A2998 RMK AO2 SLP107 T01830144 10228 20183 51002
cycle: 12

Station Type Date Time Source
KMAF TAF 2021/09/16 12:30 UTC NOAA

TAF KMAF 161128Z 1612/1712 13006KT P6SM FEW120
FM161800 16009KT P6SM SCT050

Example: see airport list